輕井澤町, 日本

2014年11月24日 15時18分 (GMT +0900)
Asamayama Fumoto | Change Station
CLOSE
Current Station
個人氣象站
Location: Karuizawa Town, NAGANO-KEN
海拔: 3658 ft
附近的氣象站

海拔 3658 ft 36.35 °N, 138.52 °E | Updated 9 seconds ago

Mostly Cloudy
多雲
49.1 °F
感覺像 49 °F
0.0
風 變化 風 來自 東南偏東
Gusts 0.0 英里每小時

今日
高 -- | 低 -- °F
--% 降水機率
昨天
高 -- | 低 -- °F
Precip. -- 英寸
6:31 AM 4:32 PM
眉月, 4% visible
氣壓 30.04 英寸
能見度 6.2 英里
多雲 多雲 7000 ft
風寒指數 49 °F
露點 39 °F
濕度 65%
降雨量 0.00 英寸
積雪深度 不適用。
紫外線 1 / 12
花粉 不適用。
空氣質素 不適用。
Flu Activity 不適用。
METAR RJAF 240600Z 17015KT 9999 BKN070 15/01 Q1017

More Conditions Fewer Conditions

氣壓 30.04 英寸
能見度 6.2 英里
多雲 多雲 7000 ft
風寒指數 49 °F
露點 39 °F
濕度 65%
降雨量 0.00 英寸
積雪深度 不適用。
紫外線 1 / 12
花粉 不適用。
空氣質素 不適用。
Flu Activity 不適用。
METAR RJAF 240600Z 17015KT 9999 BKN070 15/01 Q1017

More Conditions Fewer Conditions

10-Day Weather Forecast

Almanac

天文

Nov. 24, 2014 昇起 降落
實際時間
民用曙暮光
航海曙暮光
天文學微明
月亮
可見光的長度
白晝時間
Tomorrow will be .
, % of the Moon is Illuminated

今天之最

國家高溫 國家低溫

Community

WunderPhotos

Upload Photos

1,773,279 照片已上傳!

WunderBlogs® & News

Nearby

空氣質素

  空氣質素 空氣質素指數 污染物
Not available.

積雪量

Station 深度 海拔

地震活動

城市 距離 時間和日期
顯示的最小幅度是2.5。

沿海水溫

地點 溫度

附近的氣象站